Weather at Patergassen Heliport

Public forecast

Using degrees Celsius for public forecast. Weather courtesy of forecast.io.

Closest aviation weather report (METAR) to Patergassen Heliport

Closest report is Klagenfurt Airport, 22.4 nm (41.6 km) ESE.

2024/05/22 17:20 (retrieved 36 minutes ago)

LOWK 221720Z AUTO 06004KT 9999 FEW042 18/10 Q1013 NOSIG

Closest aviation forecast (TAF) to Patergassen Heliport

Closest forecast is Klagenfurt Airport, 22.4 nm (41.6 km) ESE.

2024/05/22 12:24 (retrieved 6 hours ago)

TAF TAF LOWK 221115Z 2212/2312 VRB03KT 9999 SCT030 BKN070 TX20/2212Z TN11/2303Z TEMPO 2212/2218 SHRA FEW020CB BKN030 PROB40 TEMPO 2212/2217 VRB10KT 3000 TSRA TEMPO 2310/2312 09008KT FEW030CB SCT040